Time;durP1;ratioP1;P1;durP2;ratioP2;P2;SDS_P1;SDS_P2;PMS_P1;PMS_P2;Temp;Humidity;BMP_temperature;BMP_pressure;BME280_temperature;BME280_humidity;BME280_pressure;Samples;Min_cycle;Max_cycle;Signal;HPM_P1;HPM_P2
2021/06/18 00:00:31;;;;;;;1.40;1.30;;;;;;;39.22;37.07;161535.25;1716505;81;21281;-86
2021/06/18 00:03:03;;;;;;;3.80;1.50;;;;;;;39.24;37.01;161539.25;1720322;83;21326;-83
2021/06/18 00:05:37;;;;;;;2.77;1.20;;;;;;;39.24;37.01;161539.25;1694979;83;21199;-83
2021/06/18 00:08:09;;;;;;;2.45;1.17;;;;;;;39.18;37.17;161523.19;1700636;83;21242;-84
2021/06/18 00:10:42;;;;;;;2.17;1.30;;;;;;;39.23;36.76;161536.62;1678490;83;21202;-83
2021/06/18 00:13:14;;;;;;;3.20;1.22;;;;;;;39.23;36.76;161536.62;1705712;83;21234;-82
2021/06/18 00:15:46;;;;;;;3.72;1.62;;;;;;;39.21;36.86;161532.56;1727574;83;21279;-82
2021/06/18 00:18:19;;;;;;;1.98;1.30;;;;;;;39.17;36.88;161520.50;1701735;82;21749;-83
2021/06/18 00:20:52;;;;;;;2.27;1.70;;;;;;;39.16;36.86;161517.81;1679416;85;21397;-84
2021/06/18 00:23:24;;;;;;;1.92;1.37;;;;;;;39.12;36.86;161507.13;1696490;83;21660;-83
2021/06/18 00:25:56;;;;;;;2.92;1.30;;;;;;;39.13;36.74;161509.77;1707886;82;21412;-82
2021/06/18 00:28:28;;;;;;;2.15;1.27;;;;;;;39.01;36.73;161478.91;1689111;83;21306;-82
2021/06/18 00:31:01;;;;;;;1.60;1.15;;;;;;;38.82;36.94;161426.63;1705642;84;21698;-82
2021/06/18 00:33:34;;;;;;;2.20;1.30;;;;;;;38.68;37.09;161387.77;1693876;82;21172;-84
2021/06/18 00:36:08;;;;;;;7.22;1.20;;;;;;;38.65;37.12;161379.66;1711763;83;21686;-84
2021/06/18 00:38:40;;;;;;;3.47;1.40;;;;;;;38.80;36.96;161419.94;1690897;83;21321;-82
2021/06/18 00:41:12;;;;;;;3.17;1.12;;;;;;;38.73;37.01;161401.14;1671393;85;21393;-83
2021/06/18 00:43:45;;;;;;;4.10;1.25;;;;;;;38.71;37.01;161397.13;1675342;83;21758;-84
2021/06/18 00:46:17;;;;;;;1.55;1.20;;;;;;;38.72;36.98;161399.81;1688247;83;21465;-83
2021/06/18 00:48:51;;;;;;;2.27;1.30;;;;;;;38.74;36.95;161405.19;1689228;83;21354;-83
2021/06/18 00:51:24;;;;;;;1.77;1.17;;;;;;;38.66;37.04;161383.70;1700528;83;21358;-84
2021/06/18 00:53:57;;;;;;;1.85;1.15;;;;;;;38.61;37.06;161368.92;1676162;83;21335;-84
2021/06/18 00:56:29;;;;;;;3.20;1.00;;;;;;;38.61;37.08;161368.92;1720058;83;21220;-84
2021/06/18 00:59:02;;;;;;;2.85;1.42;;;;;;;38.62;37.01;161372.97;1719658;83;21211;-84
2021/06/18 01:01:34;;;;;;;2.20;1.55;;;;;;;38.57;37.09;161359.55;1693084;83;21660;-84
2021/06/18 01:04:07;;;;;;;4.05;1.12;;;;;;;38.68;36.97;161389.08;1718971;83;21216;-84
2021/06/18 01:06:39;;;;;;;3.92;1.10;;;;;;;38.66;36.93;161382.39;1700296;83;21222;-84
2021/06/18 01:09:13;;;;;;;1.90;1.32;;;;;;;38.60;36.90;161367.59;1677194;83;21241;-84
2021/06/18 01:12:08;;;;;;;2.47;1.30;;;;;;;38.61;36.81;161370.28;1677415;85;21219;-84
2021/06/18 01:14:44;;;;;;;2.85;1.30;;;;;;;38.53;36.88;161348.86;1672715;85;21714;-84
2021/06/18 01:17:42;;;;;;;3.33;1.40;;;;;;;38.44;36.95;161324.70;1647329;84;21312;-83
2021/06/18 01:21:03;;;;;;;2.98;0.98;;;;;;;38.42;36.88;161318.02;1682998;84;21187;-84
2021/06/18 01:24:03;;;;;;;4.12;1.42;;;;;;;38.40;36.86;161312.64;1677100;85;21352;-85
2021/06/18 01:27:25;;;;;;;4.45;1.30;;;;;;;38.34;36.84;161297.91;1706846;83;21316;-84
2021/06/18 01:30:11;;;;;;;2.08;1.20;;;;;;;38.29;36.85;161284.53;1734849;81;21150;-84
2021/06/18 01:32:59;;;;;;;4.25;1.40;;;;;;;38.28;36.83;161280.48;1731572;82;21356;-86
2021/06/18 01:35:53;;;;;;;3.10;1.47;;;;;;;38.23;36.85;161267.13;1712723;82;21368;-84
2021/06/18 01:38:27;;;;;;;2.40;1.25;;;;;;;38.14;36.90;161244.28;1703071;82;21190;-85
2021/06/18 01:41:02;;;;;;;7.60;1.35;;;;;;;38.12;36.97;161237.59;1735962;81;21280;-85
2021/06/18 01:43:34;;;;;;;1.30;1.20;;;;;;;38.04;37.07;161217.50;1731548;82;21306;-84
2021/06/18 01:46:08;;;;;;;2.67;1.17;;;;;;;37.99;37.07;161204.08;1732401;82;21296;-84
2021/06/18 01:48:42;;;;;;;3.45;2.37;;;;;;;37.98;37.05;161198.70;1736145;81;21182;-85
2021/06/18 01:51:15;;;;;;;3.75;2.33;;;;;;;37.98;37.03;161198.70;1734515;82;21182;-85
2021/06/18 01:53:48;;;;;;;2.55;1.27;;;;;;;37.93;36.99;161186.66;1734384;82;21752;-86
2021/06/18 01:56:21;;;;;;;1.82;1.20;;;;;;;37.91;36.99;161179.97;1736276;82;21197;-84
2021/06/18 01:58:55;;;;;;;2.30;1.15;;;;;;;37.90;36.97;161177.28;1736487;82;21697;-85
2021/06/18 02:01:32;;;;;;;1.82;1.27;;;;;;;37.82;37.00;161155.88;1715209;82;21340;-85
2021/06/18 02:04:07;;;;;;;1.45;1.07;;;;;;;37.81;37.01;161154.50;1735164;82;21154;-85
2021/06/18 02:06:40;;;;;;;2.80;1.05;;;;;;;37.84;36.91;161162.55;1736230;82;21217;-84
2021/06/18 02:09:14;;;;;;;3.12;1.10;;;;;;;37.85;36.85;161163.92;1748890;80;21249;-85
2021/06/18 02:11:47;;;;;;;2.15;1.20;;;;;;;37.84;36.83;161161.23;1757545;80;21466;-84
2021/06/18 02:14:21;;;;;;;2.87;1.20;;;;;;;37.86;36.79;161167.92;1742534;80;21312;-86
2021/06/18 02:17:00;;;;;;;1.22;1.12;;;;;;;37.79;36.92;161149.12;1742245;82;21166;-85
2021/06/18 02:19:34;;;;;;;1.70;1.00;;;;;;;37.76;36.96;161139.72;1758552;81;21373;-85
2021/06/18 02:22:09;;;;;;;1.87;1.07;;;;;;;37.69;37.12;161122.31;1769296;80;21706;-86
2021/06/18 02:24:42;;;;;;;3.83;1.30;;;;;;;37.68;37.15;161118.30;1752832;81;21210;-85
2021/06/18 02:27:15;;;;;;;1.90;1.65;;;;;;;37.66;37.19;161112.94;1775602;80;21226;-85
2021/06/18 02:29:47;;;;;;;1.55;1.20;;;;;;;37.58;37.26;161091.53;1773740;81;21713;-84
2021/06/18 02:32:20;;;;;;;3.02;1.15;;;;;;;37.50;37.30;161070.13;1741316;81;21340;-84
2021/06/18 02:34:53;;;;;;;1.20;1.10;;;;;;;37.45;37.35;161056.70;1752762;81;21674;-85
2021/06/18 02:37:25;;;;;;;2.65;1.00;;;;;;;37.43;37.36;161051.34;1770345;80;21325;-85
2021/06/18 02:39:58;;;;;;;1.47;1.20;;;;;;;37.43;37.35;161051.34;1772009;81;21828;-85
2021/06/18 02:42:31;;;;;;;1.62;1.20;;;;;;;37.46;37.36;161059.38;1765298;81;21242;-86
2021/06/18 02:45:04;;;;;;;4.92;1.20;;;;;;;37.47;37.32;161062.06;1773495;81;21171;-85
2021/06/18 02:48:03;;;;;;;1.22;1.05;;;;;;;37.49;37.33;161067.44;1750066;81;21808;-84
2021/06/18 02:50:55;;;;;;;1.65;1.20;;;;;;;37.47;37.40;161063.38;1766981;79;21766;-84
2021/06/18 02:53:41;;;;;;;2.12;1.17;;;;;;;37.40;37.59;161043.28;1742982;82;21336;-86
2021/06/18 02:56:44;;;;;;;2.02;1.00;;;;;;;37.34;37.71;161028.56;1743180;82;21324;-85
2021/06/18 02:59:27;;;;;;;4.65;1.05;;;;;;;37.34;37.75;161027.19;1737416;81;22404;-85
2021/06/18 03:02:00;;;;;;;1.67;1.25;;;;;;;37.34;37.74;161027.19;1741286;80;21301;-87
2021/06/18 03:04:35;;;;;;;1.85;0.90;;;;;;;37.31;37.77;161020.52;1749698;81;21166;-84
2021/06/18 03:07:11;;;;;;;1.62;1.02;;;;;;;37.29;37.72;161015.14;1763227;81;21249;-85
2021/06/18 03:09:50;;;;;;;1.07;1.02;;;;;;;37.30;37.65;161017.83;1750144;79;21309;-85
2021/06/18 03:12:25;;;;;;;2.47;1.17;;;;;;;37.38;37.58;161037.97;1749894;81;21416;-84
2021/06/18 03:15:02;;;;;;;4.53;1.17;;;;;;;37.37;37.61;161035.30;1731306;81;21320;-84
2021/06/18 03:17:37;;;;;;;1.17;0.90;;;;;;;37.31;37.77;161019.16;1772472;80;21127;-83
2021/06/18 03:20:21;;;;;;;1.70;0.98;;;;;;;37.35;37.74;161029.94;1781018;80;21179;-84
2021/06/18 03:22:53;;;;;;;6.05;1.25;;;;;;;37.34;37.73;161027.19;1771795;79;21730;-88
2021/06/18 03:25:28;;;;;;;5.47;1.02;;;;;;;37.32;37.72;161021.83;1755069;81;21170;-84
2021/06/18 03:28:01;;;;;;;3.72;1.00;;;;;;;37.32;37.69;161021.83;1700707;83;21384;-85
2021/06/18 03:30:34;;;;;;;1.20;1.10;;;;;;;37.31;37.61;161020.52;1721750;81;21257;-85
2021/06/18 03:33:06;;;;;;;1.92;1.20;;;;;;;37.24;37.69;161001.73;1765232;81;21301;-82
2021/06/18 03:35:39;;;;;;;1.80;1.37;;;;;;;37.24;37.70;161000.42;1751930;81;21340;-84
2021/06/18 03:38:12;;;;;;;1.40;1.30;;;;;;;37.26;37.70;161007.09;1713016;81;21194;-83
2021/06/18 03:40:44;;;;;;;5.10;1.40;;;;;;;37.35;37.63;161029.94;1738589;81;21336;-83
2021/06/18 03:43:17;;;;;;;2.37;1.05;;;;;;;37.28;37.77;161011.09;1735100;81;21312;-85
2021/06/18 03:45:53;;;;;;;4.97;0.90;;;;;;;37.33;37.79;161024.50;1687031;83;21334;-84
2021/06/18 03:48:26;;;;;;;3.00;1.12;;;;;;;37.36;37.84;161032.61;1721277;82;21870;-90
2021/06/18 03:51:00;;;;;;;2.90;1.15;;;;;;;37.35;37.87;161031.25;1704241;82;21353;-87
2021/06/18 03:53:34;;;;;;;2.58;1.27;;;;;;;37.28;37.90;161012.47;1689774;83;21214;-86
2021/06/18 03:56:07;;;;;;;3.10;1.20;;;;;;;37.30;37.91;161016.47;1718837;81;21745;-86
2021/06/18 03:58:41;;;;;;;6.67;1.30;;;;;;;37.28;37.97;161012.47;1756541;81;21313;-93
2021/06/18 04:01:14;;;;;;;3.60;1.12;;;;;;;37.27;38.05;161008.41;1749859;79;21187;-90
2021/06/18 04:03:50;;;;;;;1.62;1.20;;;;;;;37.29;38.11;161015.14;1746123;81;21222;-84
2021/06/18 04:06:23;;;;;;;2.47;1.20;;;;;;;37.32;38.17;161021.83;1764806;79;21468;-87
2021/06/18 04:08:56;;;;;;;3.42;1.00;;;;;;;37.30;38.24;161016.47;1747977;81;21381;-91
2021/06/18 04:11:29;;;;;;;1.57;1.30;;;;;;;37.28;38.22;161012.47;1751377;79;21902;-84
2021/06/18 04:14:03;;;;;;;3.00;1.27;;;;;;;37.26;38.29;161007.09;1744740;81;21301;-83
2021/06/18 04:16:37;;;;;;;1.15;1.05;;;;;;;37.22;38.42;160996.38;1744973;81;21376;-87
2021/06/18 04:19:10;;;;;;;1.30;1.10;;;;;;;37.22;38.49;160996.38;1730833;81;21171;-85
2021/06/18 04:21:44;;;;;;;1.85;1.10;;;;;;;37.27;38.51;161008.41;1764543;79;21789;-85
2021/06/18 04:24:16;;;;;;;2.45;1.45;;;;;;;37.31;38.51;161019.16;1745798;81;21199;-83
2021/06/18 04:26:49;;;;;;;3.90;1.30;;;;;;;37.28;38.59;161012.47;1733670;81;21957;-84
2021/06/18 04:29:21;;;;;;;4.12;1.20;;;;;;;37.30;38.67;161017.83;1734539;81;21221;-85
2021/06/18 04:31:54;;;;;;;6.53;1.20;;;;;;;37.34;38.71;161027.19;1732271;81;21708;-85
2021/06/18 04:34:26;;;;;;;5.45;1.47;;;;;;;37.37;38.75;161036.61;1749278;81;21209;-82
2021/06/18 04:36:59;;;;;;;1.87;0.90;;;;;;;37.40;38.81;161043.28;1769610;81;21191;-83
2021/06/18 04:39:32;;;;;;;4.47;1.05;;;;;;;37.38;38.87;161037.97;1740909;81;21162;-82
2021/06/18 04:42:05;;;;;;;1.72;1.10;;;;;;;37.42;38.91;161050.03;1710624;83;21311;-83
2021/06/18 04:44:38;;;;;;;10.05;2.85;;;;;;;37.42;38.99;161050.03;1682563;83;21270;-81
2021/06/18 04:47:11;;;;;;;2.25;1.27;;;;;;;37.40;39.12;161043.28;1720186;83;21371;-82
2021/06/18 04:49:43;;;;;;;2.98;1.00;;;;;;;37.34;39.19;161028.56;1694392;83;21358;-82
2021/06/18 04:52:17;;;;;;;1.92;1.30;;;;;;;37.36;39.20;161032.61;1692353;83;21246;-83
2021/06/18 04:54:53;;;;;;;2.08;1.30;;;;;;;37.41;39.22;161045.97;1694686;83;21378;-82
2021/06/18 04:57:25;;;;;;;4.12;1.17;;;;;;;37.45;39.26;161056.70;1720814;83;21446;-81
2021/06/18 04:59:58;;;;;;;3.70;1.10;;;;;;;37.51;39.28;161072.75;1707897;82;21344;-81
2021/06/18 05:02:30;;;;;;;4.12;1.47;;;;;;;37.55;39.33;161084.84;1659300;83;21313;-82
2021/06/18 05:05:03;;;;;;;1.42;1.12;;;;;;;37.55;39.35;161084.84;1750445;81;21167;-81
2021/06/18 05:07:35;;;;;;;5.90;1.30;;;;;;;37.59;39.35;161094.20;1747138;81;21394;-85
2021/06/18 05:10:09;;;;;;;1.42;1.10;;;;;;;37.63;39.29;161104.89;1770742;80;21755;-82
2021/06/18 05:12:42;;;;;;;2.77;1.00;;;;;;;37.68;39.21;161118.30;1759052;80;21808;-82
2021/06/18 05:15:15;;;;;;;2.02;1.30;;;;;;;37.64;39.15;161108.94;1754097;80;21364;-84
2021/06/18 05:17:48;;;;;;;1.70;1.30;;;;;;;37.63;39.43;161104.89;1772557;80;21816;-82
2021/06/18 05:20:20;;;;;;;3.45;1.17;;;;;;;37.69;39.57;161122.31;1740891;81;21332;-86
2021/06/18 05:22:53;;;;;;;3.90;1.40;;;;;;;37.74;39.76;161134.34;1686868;84;21233;-82
2021/06/18 05:25:25;;;;;;;5.15;1.42;;;;;;;37.85;39.73;161165.23;1713370;82;21348;-81
2021/06/18 05:27:58;;;;;;;3.10;1.30;;;;;;;37.89;39.82;161174.59;1771434;81;21764;-82
2021/06/18 05:30:30;;;;;;;3.27;1.20;;;;;;;37.93;39.63;161186.66;1769700;81;21162;-81
2021/06/18 05:33:02;;;;;;;5.08;1.00;;;;;;;37.98;39.68;161198.70;1760629;81;21347;-81
2021/06/18 05:35:35;;;;;;;5.35;1.82;;;;;;;38.04;39.46;161217.50;1731645;81;21236;-83
2021/06/18 05:38:07;;;;;;;2.72;1.20;;;;;;;38.07;39.44;161225.53;1732841;81;21316;-83
2021/06/18 05:40:46;;;;;;;3.15;1.20;;;;;;;38.12;39.50;161237.59;1686745;85;21410;-82
2021/06/18 05:43:13;;;;;;;3.80;1.00;;;;;;;38.17;39.52;161252.33;1723335;82;21622;-83
2021/06/18 05:45:46;;;;;;;3.25;1.17;;;;;;;38.20;39.41;161260.33;1735847;81;21914;-83
2021/06/18 05:48:18;;;;;;;4.45;1.20;;;;;;;38.23;39.43;161268.44;1758781;81;21227;-82
2021/06/18 05:50:54;;;;;;;2.67;2.05;;;;;;;38.30;39.64;161287.22;1705243;82;21261;-83
2021/06/18 05:53:26;;;;;;;1.95;1.30;;;;;;;38.34;39.81;161296.59;1686826;85;21379;-88
2021/06/18 05:55:59;;;;;;;2.02;1.35;;;;;;;38.41;40.00;161315.33;1686015;84;21236;-87
2021/06/18 05:58:32;;;;;;;3.80;1.50;;;;;;;38.44;40.12;161323.37;1686598;83;21350;-87
2021/06/18 06:01:05;;;;;;;2.83;1.15;;;;;;;38.48;40.26;161334.13;1766317;79;21794;-87
2021/06/18 06:03:43;;;;;;;1.90;1.12;;;;;;;38.51;40.05;161342.12;1746768;81;21254;-88
2021/06/18 06:06:16;;;;;;;1.75;1.35;;;;;;;38.57;39.99;161359.55;1745181;79;21341;-88
2021/06/18 06:08:51;;;;;;;3.42;1.10;;;;;;;38.59;40.06;161363.59;1743450;79;21349;-85
2021/06/18 06:11:24;;;;;;;3.37;1.27;;;;;;;38.69;40.14;161390.45;1745075;81;21618;-85
2021/06/18 06:13:59;;;;;;;1.22;1.12;;;;;;;38.77;40.22;161411.87;1744497;81;21843;-84
2021/06/18 06:16:34;;;;;;;1.27;0.90;;;;;;;38.83;40.10;161429.31;1755096;81;21246;-87
2021/06/18 06:19:06;;;;;;;4.20;1.20;;;;;;;38.95;40.33;161461.47;1743612;81;21258;-85
2021/06/18 06:21:40;;;;;;;1.20;1.10;;;;;;;38.95;40.33;161461.47;1747089;81;21404;-88
2021/06/18 06:24:14;;;;;;;2.00;1.22;;;;;;;38.99;40.30;161473.53;1742710;81;21880;-80
2021/06/18 06:26:46;;;;;;;3.15;1.30;;;;;;;39.05;40.39;161488.28;1745278;81;21198;-87
2021/06/18 06:29:19;;;;;;;1.80;1.27;;;;;;;39.12;40.62;161507.13;1746219;81;21372;-85
2021/06/18 06:31:53;;;;;;;3.92;1.37;;;;;;;39.21;40.36;161531.25;1755122;80;21251;-83
2021/06/18 06:34:25;;;;;;;2.92;1.77;;;;;;;39.22;39.99;161533.94;1751286;79;21210;-87
2021/06/18 06:36:58;;;;;;;2.42;1.35;;;;;;;39.28;40.01;161550.00;1746445;79;21725;-86
2021/06/18 06:39:31;;;;;;;2.47;1.20;;;;;;;39.28;40.01;161550.00;1742575;81;21202;-83
2021/06/18 06:42:05;;;;;;;1.42;1.17;;;;;;;39.39;40.23;161580.86;1748415;81;21407;-86
2021/06/18 06:44:38;;;;;;;2.70;1.15;;;;;;;39.50;40.25;161610.41;1753583;80;21887;-87
2021/06/18 06:47:10;;;;;;;2.12;1.10;;;;;;;39.51;40.38;161613.09;1749226;79;21233;-84
2021/06/18 06:49:44;;;;;;;2.37;1.12;;;;;;;39.56;40.44;161625.16;1742105;81;21400;-83
2021/06/18 06:52:19;;;;;;;3.40;1.10;;;;;;;39.64;40.36;161646.59;1744693;80;21170;-84
2021/06/18 06:54:50;;;;;;;3.22;1.22;;;;;;;39.72;40.08;161669.41;1742450;81;21213;-88
2021/06/18 06:57:23;;;;;;;1.67;1.12;;;;;;;39.82;40.08;161694.84;1745732;81;21212;-85
2021/06/18 06:59:56;;;;;;;4.12;1.10;;;;;;;39.82;40.08;161694.84;1744083;81;21210;-83
2021/06/18 07:02:28;;;;;;;1.20;1.07;;;;;;;39.82;39.91;161696.22;1745750;79;21756;-87
2021/06/18 07:05:01;;;;;;;3.65;1.37;;;;;;;39.92;39.70;161723.09;1746604;80;21198;-86
2021/06/18 07:07:35;;;;;;;3.95;1.00;;;;;;;39.96;39.73;161733.84;1742542;81;21189;-82
2021/06/18 07:10:09;;;;;;;3.00;0.98;;;;;;;40.00;39.82;161745.91;1742797;81;21349;-86
2021/06/18 07:12:43;;;;;;;3.15;1.00;;;;;;;40.13;40.03;161779.42;1741299;81;21249;-84
2021/06/18 07:15:18;;;;;;;1.30;1.20;;;;;;;40.26;39.26;161814.31;1752281;79;21218;-83
2021/06/18 07:17:50;;;;;;;1.20;1.10;;;;;;;40.26;39.26;161814.31;1743051;79;21356;-83
2021/06/18 07:20:23;;;;;;;3.17;1.02;;;;;;;40.33;39.46;161833.13;1743338;81;21238;-81
2021/06/18 07:22:55;;;;;;;1.15;1.02;;;;;;;40.52;39.79;161884.13;1743642;81;21190;-82
2021/06/18 07:25:28;;;;;;;1.15;1.00;;;;;;;40.52;39.79;161884.13;1742826;81;21376;-83
2021/06/18 07:28:00;;;;;;;3.20;1.07;;;;;;;40.58;39.71;161900.22;1748673;81;21233;-84
2021/06/18 07:30:34;;;;;;;1.80;0.88;;;;;;;40.62;39.68;161912.34;1744947;81;21321;-84
2021/06/18 07:33:07;;;;;;;1.60;1.27;;;;;;;40.70;39.70;161932.41;1744602;79;21205;-85
2021/06/18 07:35:40;;;;;;;3.30;1.20;;;;;;;40.76;39.68;161948.59;1747943;81;21772;-83
2021/06/18 07:38:12;;;;;;;6.53;1.17;;;;;;;40.82;39.66;161966.05;1747848;81;21220;-82
2021/06/18 07:40:46;;;;;;;2.92;1.80;;;;;;;40.99;39.65;162013.03;1741638;81;21333;-82
2021/06/18 07:43:19;;;;;;;3.22;1.50;;;;;;;41.08;39.57;162035.86;1745288;81;21345;-83
2021/06/18 07:45:51;;;;;;;1.98;1.35;;;;;;;41.13;39.20;162049.25;1755988;79;21202;-83
2021/06/18 07:48:27;;;;;;;3.52;1.10;;;;;;;41.18;39.07;162064.06;1746888;80;21814;-82
2021/06/18 07:51:01;;;;;;;1.20;1.10;;;;;;;41.27;38.96;162086.89;1748814;81;21283;-82
2021/06/18 07:53:35;;;;;;;4.08;1.15;;;;;;;41.34;38.74;162105.67;1768176;80;21242;-80
2021/06/18 07:56:08;;;;;;;3.70;1.55;;;;;;;41.40;39.17;162121.81;1749688;81;21232;-80
2021/06/18 07:58:40;;;;;;;2.35;1.10;;;;;;;41.51;38.96;162151.34;1691267;84;21236;-80
2021/06/18 08:01:13;;;;;;;2.67;1.20;;;;;;;41.63;38.99;162183.63;1686581;85;21688;-80
2021/06/18 08:03:45;;;;;;;1.20;1.10;;;;;;;41.70;38.93;162202.39;1726593;83;21357;-82
2021/06/18 08:06:17;;;;;;;5.65;1.22;;;;;;;41.74;38.87;162214.47;1679104;83;21813;-82
2021/06/18 08:08:50;;;;;;;1.87;1.10;;;;;;;41.83;38.87;162238.69;1681580;85;21404;-82
2021/06/18 08:11:22;;;;;;;2.40;1.00;;;;;;;41.90;38.76;162257.47;1681647;85;21713;-82
2021/06/18 08:13:55;;;;;;;2.87;1.20;;;;;;;42.04;38.57;162295.12;1681709;85;21785;-82
2021/06/18 08:16:28;;;;;;;2.15;1.35;;;;;;;42.03;38.51;162293.75;1687364;84;21351;-81
2021/06/18 08:19:00;;;;;;;3.25;1.27;;;;;;;42.09;38.52;162309.91;1739776;81;21388;-81
2021/06/18 08:21:33;;;;;;;7.28;1.30;;;;;;;42.16;38.56;162328.69;1736824;82;21372;-82
2021/06/18 08:24:06;;;;;;;3.17;1.20;;;;;;;42.22;38.51;162344.83;1736985;82;21202;-82
2021/06/18 08:26:39;;;;;;;7.62;1.40;;;;;;;42.28;38.50;162360.92;1737076;82;21514;-83
2021/06/18 08:29:11;;;;;;;1.57;1.20;;;;;;;42.39;38.36;162390.53;1736912;82;21241;-82
2021/06/18 08:31:44;;;;;;;3.65;1.30;;;;;;;42.40;38.31;162393.22;1737223;82;21312;-83
2021/06/18 08:34:16;;;;;;;4.42;2.20;;;;;;;42.38;38.40;162386.52;1737028;82;21804;-82
2021/06/18 08:36:49;;;;;;;2.22;1.22;;;;;;;42.44;38.37;162402.61;1736790;82;21439;-82
2021/06/18 08:39:21;;;;;;;4.00;1.17;;;;;;;42.50;38.35;162418.75;1737090;82;21745;-82
2021/06/18 08:41:54;;;;;;;3.55;1.30;;;;;;;42.54;38.50;162430.84;1736950;82;21372;-82
2021/06/18 08:44:28;;;;;;;2.77;1.35;;;;;;;42.56;38.55;162434.84;1737213;82;21316;-82
2021/06/18 08:47:00;;;;;;;4.40;1.30;;;;;;;42.55;38.63;162433.53;1736919;81;21352;-82
2021/06/18 08:49:32;;;;;;;1.02;1.00;;;;;;;42.54;38.88;162430.84;1737056;82;21333;-82
2021/06/18 08:52:05;;;;;;;4.80;1.22;;;;;;;42.56;38.96;162436.22;1737156;82;21789;-82
2021/06/18 08:54:42;;;;;;;1.47;1.22;;;;;;;42.63;39.03;162453.69;1736993;82;21436;-82
2021/06/18 08:57:18;;;;;;;4.90;1.30;;;;;;;42.72;38.91;162479.19;1716000;82;21226;-83
2021/06/18 08:59:51;;;;;;;1.37;1.17;;;;;;;42.78;38.79;162495.38;1736987;82;21399;-82
2021/06/18 09:02:24;;;;;;;1.87;1.47;;;;;;;42.83;38.80;162508.80;1737167;82;21427;-83
2021/06/18 09:05:12;;;;;;;1.30;1.20;;;;;;;42.90;38.88;162528.95;1717215;82;21341;-83
2021/06/18 09:08:03;;;;;;;1.60;1.20;;;;;;;42.97;38.82;162547.80;1736783;82;21313;-82
2021/06/18 09:10:41;;;;;;;1.25;1.15;;;;;;;42.98;38.91;162549.13;1737017;82;21186;-82
2021/06/18 09:13:30;;;;;;;1.30;1.05;;;;;;;43.10;38.85;162581.37;1736944;81;21337;-83
2021/06/18 09:15:59;;;;;;;1.45;1.35;;;;;;;43.12;38.86;162588.13;1736841;82;21836;-82
2021/06/18 09:18:39;;;;;;;3.87;1.40;;;;;;;43.15;38.94;162596.20;1737022;82;21372;-82
2021/06/18 09:21:24;;;;;;;2.37;1.40;;;;;;;43.24;38.88;162620.39;1737116;82;21741;-83
2021/06/18 09:23:57;;;;;;;3.92;1.50;;;;;;;43.28;38.89;162629.84;1708771;82;21187;-82
2021/06/18 09:26:34;;;;;;;3.27;1.20;;;;;;;43.25;38.83;162621.75;1737484;82;21244;-83
2021/06/18 09:29:10;;;;;;;3.15;1.60;;;;;;;43.27;38.87;162627.14;1735693;82;21372;-82
2021/06/18 09:32:01;;;;;;;1.95;1.00;;;;;;;43.33;38.84;162644.63;1731439;83;21372;-83
2021/06/18 09:35:00;;;;;;;;;;;;;;;43.36;38.77;162651.31;1734004;83;21674;-82
2021/06/18 09:37:38;;;;;;;1.82;1.30;;;;;;;43.42;38.61;162667.42;1731529;83;20616;-83
2021/06/18 09:40:16;;;;;;;1.87;1.20;;;;;;;43.44;38.56;162674.19;1711180;83;21275;-82
2021/06/18 09:42:58;;;;;;;1.35;1.20;;;;;;;43.52;38.43;162694.41;1731448;83;21389;-82
2021/06/18 09:45:38;;;;;;;3.10;1.10;;;;;;;43.52;38.47;162695.72;1731425;83;21376;-82
2021/06/18 09:48:17;;;;;;;2.12;1.55;;;;;;;43.59;38.34;162713.22;1731585;83;21424;-82
2021/06/18 09:50:53;;;;;;;2.75;1.40;;;;;;;43.66;38.39;162732.00;1731735;82;21250;-83
2021/06/18 09:53:27;;;;;;;3.42;1.32;;;;;;;43.76;38.25;162758.89;1711018;83;21196;-82
2021/06/18 09:56:06;;;;;;;2.65;1.20;;;;;;;43.84;38.31;162781.75;1731759;83;21191;-83
2021/06/18 09:58:44;;;;;;;3.02;1.37;;;;;;;43.93;38.23;162807.38;1731517;81;21388;-82
2021/06/18 10:01:31;;;;;;;3.77;1.20;;;;;;;43.99;38.15;162823.48;1731475;83;21706;-82
2021/06/18 10:04:11;;;;;;;2.45;1.52;;;;;;;44.06;38.19;162840.97;1731606;83;21232;-82
2021/06/18 10:06:42;;;;;;;1.60;1.20;;;;;;;44.11;38.15;162855.75;1731682;83;21348;-82
2021/06/18 10:09:16;;;;;;;1.20;1.10;;;;;;;44.17;38.08;162871.91;1731510;83;21315;-82
2021/06/18 10:11:50;;;;;;;1.95;1.45;;;;;;;44.16;38.04;162869.22;1731477;82;21403;-82
2021/06/18 10:14:22;;;;;;;3.15;1.60;;;;;;;44.17;38.10;162871.91;1731419;82;21361;-82
2021/06/18 10:16:55;;;;;;;1.98;1.40;;;;;;;44.23;38.16;162888.03;1731343;83;21423;-83
2021/06/18 10:19:29;;;;;;;2.15;1.12;;;;;;;44.37;38.11;162924.44;1711295;83;21868;-82
2021/06/18 10:22:24;;;;;;;2.08;1.20;;;;;;;44.35;38.15;162919.03;1731489;83;21902;-82
2021/06/18 10:25:04;;;;;;;2.95;1.37;;;;;;;44.30;38.18;162905.56;1731397;83;21423;-83
2021/06/18 10:27:48;;;;;;;2.55;1.22;;;;;;;44.33;38.10;162913.64;1731375;83;21242;-82
2021/06/18 10:30:29;;;;;;;2.30;1.60;;;;;;;44.26;38.22;162896.16;1728399;83;21895;-82
2021/06/18 10:33:07;;;;;;;2.80;1.32;;;;;;;44.33;38.21;162913.64;1731317;83;21383;-82
2021/06/18 10:36:04;;;;;;;1.62;1.25;;;;;;;44.36;38.09;162923.06;1726445;83;21151;-80
2021/06/18 10:38:42;;;;;;;1.87;1.20;;;;;;;44.37;38.01;162925.75;1731467;81;21293;-79
2021/06/18 10:41:26;;;;;;;4.75;2.10;;;;;;;44.43;37.98;162940.53;1731151;83;21175;-80
2021/06/18 10:43:59;;;;;;;1.62;1.17;;;;;;;44.40;37.94;162932.45;1731137;81;21194;-79
2021/06/18 10:46:36;;;;;;;3.50;1.60;;;;;;;44.29;38.06;162902.87;1731161;81;21337;-81
2021/06/18 10:49:13;;;;;;;1.72;1.20;;;;;;;44.16;38.20;162869.22;1731206;81;21376;-79
2021/06/18 10:51:50;;;;;;;3.40;1.50;;;;;;;44.17;38.20;162871.91;1708938;82;21294;-79
2021/06/18 10:54:28;;;;;;;2.00;1.32;;;;;;;44.27;38.15;162898.86;1721115;82;21855;-81
2021/06/18 10:57:06;;;;;;;1.35;1.10;;;;;;;44.24;38.21;162890.72;1715501;81;21396;-79
2021/06/18 10:59:47;;;;;;;1.50;1.37;;;;;;;44.31;38.27;162909.63;1712788;81;21330;-82
2021/06/18 11:02:34;;;;;;;2.35;1.42;;;;;;;44.30;38.38;162906.94;1716299;82;21348;-81
2021/06/18 11:05:17;;;;;;;;;;;;;;;44.30;38.38;162906.94;1716416;82;21838;-81
2021/06/18 11:07:50;;;;;;;1.52;1.40;;;;;;;44.38;38.24;162927.13;1697688;82;20254;-81
2021/06/18 11:10:31;;;;;;;1.90;1.40;;;;;;;44.41;38.23;162936.53;1709788;81;21229;-80
2021/06/18 11:13:07;;;;;;;4.00;1.87;;;;;;;44.41;38.30;162935.16;1710342;82;21981;-83
2021/06/18 11:15:42;;;;;;;3.37;1.37;;;;;;;44.43;38.33;162940.53;1709560;81;21411;-81
2021/06/18 11:18:18;;;;;;;5.58;1.50;;;;;;;44.44;38.41;162944.61;1708632;81;21749;-81
2021/06/18 11:20:53;;;;;;;2.58;1.60;;;;;;;44.49;38.49;162958.03;1744996;81;21340;-82
2021/06/18 11:23:32;;;;;;;2.95;1.67;;;;;;;44.54;38.53;162971.50;1744118;81;21868;-81
2021/06/18 11:26:09;;;;;;;1.72;1.60;;;;;;;44.60;38.56;162987.61;1741675;81;21183;-80
2021/06/18 11:28:47;;;;;;;1.57;1.45;;;;;;;44.64;38.60;162998.45;1754270;81;21316;-82
2021/06/18 11:31:40;;;;;;;1.72;1.60;;;;;;;44.79;38.49;163037.44;1743894;81;21802;-82
2021/06/18 11:34:27;;;;;;;3.58;1.90;;;;;;;44.78;38.49;163034.75;1745325;80;21547;-83
2021/06/18 11:37:00;;;;;;;5.85;1.60;;;;;;;44.76;38.56;163030.73;1743691;81;21238;-83
2021/06/18 11:39:32;;;;;;;3.80;1.30;;;;;;;44.76;38.65;163030.73;1742728;81;21175;-80
2021/06/18 11:42:06;;;;;;;4.60;1.80;;;;;;;44.79;38.56;163038.81;1745737;80;21210;-83
2021/06/18 11:44:39;;;;;;;2.30;1.50;;;;;;;44.97;38.48;163087.22;1742149;81;22078;-88
2021/06/18 11:47:11;;;;;;;4.90;1.92;;;;;;;45.05;38.91;163108.78;1754472;80;21290;-87
2021/06/18 11:49:45;;;;;;;6.12;1.75;;;;;;;45.11;38.94;163124.95;1749213;81;21210;-82
2021/06/18 11:52:18;;;;;;;3.83;1.80;;;;;;;45.25;39.37;163162.64;1755413;81;21466;-80
2021/06/18 11:54:57;;;;;;;4.67;1.60;;;;;;;45.24;39.27;163161.27;1754837;81;21324;-82
2021/06/18 11:57:29;;;;;;;5.08;2.30;;;;;;;45.27;38.90;163167.98;1725445;81;21207;-81
2021/06/18 12:00:06;;;;;;;8.53;2.10;;;;;;;45.33;38.50;163184.16;1718879;81;21376;-85
2021/06/18 12:02:38;;;;;;;4.40;1.70;;;;;;;45.42;38.15;163208.42;1742069;81;21364;-89
2021/06/18 12:05:17;;;;;;;2.37;1.60;;;;;;;45.45;37.76;163216.50;1741703;81;21373;-84